X  Fermer Données météorologiques d'aviation de Metar     LGRX Patras Araxos Agamemnon Airport
Température
93°F Température
57°F Point de rosée
30% Humidité



Vent
14 MPH
23 KM/H
6 M/S
12 KTS



180°
S
Conditions actuelles

Partiellement nuageux Partiellement nuageux
Pression 1014.92 (hPa) - 29.97 (inHg)
Visibilité 6.2 (mile) - 10 (km)
Aéroport
Code de l'aéroport LGRX

Emplacement: Patras Araxos Agamemnon Airport
Distance: 108 (mi)

Metar:
LGRX 011350Z 18012KT 9999 FEW030 SCT080 34/14 Q1015

Temps: 01-10-2022 16:50 EEST